createdAt,value
2023-02-14T00:02:24.084Z,68.41
2023-02-14T00:04:52.834Z,68.34
2023-02-14T00:07:23.265Z,68.38
2023-02-14T00:09:51.935Z,68.31
2023-02-14T00:12:20.469Z,68.16
2023-02-14T00:15:07.558Z,68.14
2023-02-14T00:17:36.098Z,68.06
2023-02-14T00:20:05.142Z,67.94
2023-02-14T00:22:33.693Z,68.07
2023-02-14T00:25:02.286Z,68.13
2023-02-14T00:27:31.252Z,68.21
2023-02-14T00:30:03.985Z,68.12
2023-02-14T00:32:32.861Z,68.44
2023-02-14T00:35:01.316Z,68.85
2023-02-14T00:37:30.166Z,68.24
2023-02-14T00:39:58.700Z,68.54
2023-02-14T00:42:28.050Z,68.21
2023-02-14T00:44:56.717Z,68.49
2023-02-14T00:47:25.216Z,68.70
2023-02-14T00:49:53.918Z,68.23
2023-02-14T00:52:22.440Z,68.37
2023-02-14T00:54:50.964Z,68.25
2023-02-14T00:57:19.525Z,68.12
2023-02-14T00:59:48.149Z,68.39
2023-02-14T01:02:16.718Z,68.47
2023-02-14T01:04:45.658Z,68.35
2023-02-14T01:07:14.145Z,68.35
2023-02-14T01:09:43.496Z,68.17
2023-02-14T01:12:12.063Z,68.29
2023-02-14T01:14:43.343Z,68.53
2023-02-14T01:17:12.027Z,68.57
2023-02-14T01:19:43.038Z,68.46
2023-02-14T01:22:11.736Z,68.11
2023-02-14T01:24:40.291Z,68.16
2023-02-14T01:27:08.872Z,68.56
2023-02-14T01:29:37.654Z,68.31
2023-02-14T01:32:06.444Z,68.30
2023-02-14T01:34:35.214Z,67.98
2023-02-14T01:37:03.698Z,67.79
2023-02-14T01:39:32.359Z,68.07
2023-02-14T01:42:01.860Z,68.39
2023-02-14T01:44:50.525Z,68.03
2023-02-14T01:47:22.083Z,67.87
2023-02-14T01:49:55.158Z,67.97
2023-02-14T01:52:30.228Z,67.98
2023-02-14T01:55:11.097Z,67.83
2023-02-14T01:58:00.272Z,67.88
2023-02-14T02:00:47.950Z,68.24
2023-02-14T02:03:20.224Z,68.19
2023-02-14T02:05:54.567Z,68.16
2023-02-14T02:08:25.831Z,68.49
2023-02-14T02:10:54.521Z,68.14
2023-02-14T02:13:23.793Z,67.96
2023-02-14T02:16:03.322Z,68.12
2023-02-14T02:18:55.877Z,68.36
2023-02-14T02:21:52.181Z,68.54
2023-02-14T02:24:45.127Z,68.43
2023-02-14T02:27:19.569Z,68.24
2023-02-14T02:29:56.924Z,68.21
2023-02-14T02:32:59.486Z,67.80
2023-02-14T02:35:58.085Z,68.02
2023-02-14T02:38:45.717Z,68.37
2023-02-14T02:41:29.101Z,67.87
2023-02-14T02:44:02.298Z,68.31
2023-02-14T02:46:50.402Z,68.13
2023-02-14T02:50:00.266Z,67.71
2023-02-14T02:52:57.969Z,67.95
2023-02-14T02:56:08.625Z,67.57
2023-02-14T02:58:52.977Z,67.57
2023-02-14T03:01:27.800Z,67.83
2023-02-14T03:04:20.180Z,67.85
2023-02-14T03:06:49.475Z,67.53
2023-02-14T03:09:21.153Z,67.71
2023-02-14T03:11:58.690Z,67.70
2023-02-14T03:15:09.180Z,67.42
2023-02-14T03:18:14.500Z,67.87
2023-02-14T03:21:19.440Z,67.72
2023-02-14T03:24:09.807Z,67.61
2023-02-14T03:27:02.271Z,67.55
2023-02-14T03:29:52.284Z,67.44
2023-02-14T03:32:31.324Z,67.13
2023-02-14T03:35:14.975Z,67.24
2023-02-14T03:37:53.055Z,66.99
2023-02-14T03:40:39.971Z,67.08
2023-02-14T03:43:13.739Z,67.24
2023-02-14T03:45:56.823Z,67.09
2023-02-14T03:48:29.415Z,66.89
2023-02-14T03:51:00.159Z,66.63
2023-02-14T03:53:33.730Z,66.77
2023-02-14T03:56:31.830Z,66.85
2023-02-14T03:59:08.239Z,66.98
2023-02-14T04:01:50.065Z,66.69
2023-02-14T04:04:22.660Z,66.52
2023-02-14T04:06:51.560Z,66.25
2023-02-14T04:09:20.286Z,66.26
2023-02-14T04:11:51.042Z,66.13
2023-02-14T04:14:19.913Z,66.32
2023-02-14T04:17:06.618Z,66.60
2023-02-14T04:19:37.719Z,65.77
2023-02-14T04:22:06.290Z,65.85
2023-02-14T04:24:35.012Z,65.84
2023-02-14T04:27:12.818Z,65.61
2023-02-14T04:29:41.402Z,66.38
2023-02-14T04:32:13.660Z,65.74
2023-02-14T04:34:45.048Z,66.06
2023-02-14T04:37:14.840Z,66.33
2023-02-14T04:39:43.559Z,66.45
2023-02-14T04:42:12.323Z,66.61
2023-02-14T04:44:40.975Z,65.48
2023-02-14T04:47:10.411Z,66.45
2023-02-14T04:49:39.114Z,66.54
2023-02-14T04:52:08.203Z,66.04
2023-02-14T04:54:36.679Z,66.43
2023-02-14T04:57:05.325Z,66.40
2023-02-14T04:59:33.994Z,65.84
2023-02-14T05:02:02.778Z,65.65
2023-02-14T05:04:31.647Z,66.10
2023-02-14T05:07:02.805Z,65.60
2023-02-14T05:09:31.529Z,66.23
2023-02-14T05:12:02.295Z,65.80
2023-02-14T05:14:31.019Z,65.41
2023-02-14T05:16:59.616Z,65.53
2023-02-14T05:19:31.225Z,66.16
2023-02-14T05:21:59.924Z,65.74
2023-02-14T05:24:28.558Z,65.48
2023-02-14T05:26:57.110Z,65.70
2023-02-14T05:29:25.931Z,65.56
2023-02-14T05:31:54.737Z,65.25
2023-02-14T05:34:23.409Z,65.66
2023-02-14T05:36:52.009Z,64.83
2023-02-14T05:39:20.783Z,64.81
2023-02-14T05:41:51.781Z,64.61
2023-02-14T05:44:20.361Z,64.45
2023-02-14T05:46:49.036Z,64.37
2023-02-14T05:49:17.606Z,64.57
2023-02-14T05:51:48.930Z,64.22
2023-02-14T05:54:17.529Z,64.12
2023-02-14T05:56:46.210Z,63.93
2023-02-14T05:59:15.362Z,64.01
2023-02-14T06:01:44.043Z,63.97
2023-02-14T06:04:12.869Z,63.63
2023-02-14T06:06:41.610Z,63.55
2023-02-14T06:09:10.164Z,63.71
2023-02-14T06:11:38.690Z,63.74
2023-02-14T06:14:07.485Z,64.10
2023-02-14T06:16:36.366Z,63.42
2023-02-14T06:19:04.972Z,64.03
2023-02-14T06:21:33.685Z,63.59
2023-02-14T06:24:02.230Z,64.02
2023-02-14T06:26:31.329Z,63.56
2023-02-14T06:29:00.272Z,63.82
2023-02-14T06:31:29.203Z,63.17
2023-02-14T06:33:57.970Z,63.48
2023-02-14T06:36:27.885Z,62.91
2023-02-14T06:38:57.475Z,62.91
2023-02-14T06:41:26.201Z,62.93
2023-02-14T06:43:55.087Z,62.42
2023-02-14T06:46:25.073Z,62.52
2023-02-14T06:48:53.807Z,62.78
2023-02-14T06:51:22.609Z,63.07
2023-02-14T06:53:51.396Z,63.04
2023-02-14T06:56:21.248Z,62.25
2023-02-14T06:58:50.042Z,62.83
2023-02-14T07:01:18.638Z,62.44
2023-02-14T07:03:47.482Z,62.72
2023-02-14T07:06:16.149Z,62.40
2023-02-14T07:08:44.803Z,62.30
2023-02-14T07:11:16.542Z,61.91
2023-02-14T07:13:45.148Z,61.83
2023-02-14T07:16:13.751Z,61.40
2023-02-14T07:18:42.625Z,61.52
2023-02-14T07:21:11.304Z,61.74
2023-02-14T07:23:41.200Z,61.38
2023-02-14T07:26:09.987Z,61.16
2023-02-14T07:28:38.724Z,60.91
2023-02-14T07:31:07.723Z,60.85
2023-02-14T07:33:36.462Z,60.58
2023-02-14T07:36:07.905Z,60.20
2023-02-14T07:38:36.927Z,59.96
2023-02-14T07:41:05.910Z,60.63
2023-02-14T07:43:37.741Z,59.66
2023-02-14T07:46:07.340Z,60.25
2023-02-14T07:48:36.172Z,60.67
2023-02-14T07:51:05.090Z,60.46
2023-02-14T07:53:33.812Z,60.03
2023-02-14T07:56:02.646Z,60.58
2023-02-14T07:58:31.528Z,61.06
2023-02-14T08:01:00.989Z,61.48
2023-02-14T08:03:30.024Z,60.95
2023-02-14T08:05:58.724Z,60.95
2023-02-14T08:08:29.272Z,61.03
2023-02-14T08:10:58.584Z,61.06
2023-02-14T08:13:27.800Z,60.66
2023-02-14T08:16:05.583Z,60.79
2023-02-14T08:18:37.643Z,61.35
2023-02-14T08:21:08.782Z,61.51
2023-02-14T08:23:38.821Z,61.51
2023-02-14T08:26:07.772Z,60.93
2023-02-14T08:28:36.449Z,61.23
2023-02-14T08:31:05.970Z,61.75
2023-02-14T08:33:34.894Z,62.20
2023-02-14T08:36:03.555Z,62.24
2023-02-14T08:38:32.198Z,62.46
2023-02-14T08:41:05.805Z,62.11
2023-02-14T08:43:36.559Z,61.97
2023-02-14T08:46:05.469Z,62.18
2023-02-14T08:48:39.183Z,63.05
2023-02-14T08:51:13.176Z,62.35
2023-02-14T08:53:43.006Z,62.45
2023-02-14T08:56:16.177Z,63.17
2023-02-14T08:58:44.932Z,62.81
2023-02-14T09:01:17.521Z,63.13
2023-02-14T09:03:46.375Z,62.71
2023-02-14T09:06:18.042Z,62.15
2023-02-14T09:08:47.382Z,62.83
2023-02-14T09:11:19.736Z,62.61
2023-02-14T09:13:49.104Z,62.63
2023-02-14T09:16:19.168Z,63.49
2023-02-14T09:18:49.146Z,63.86
2023-02-14T09:21:21.197Z,63.19
2023-02-14T09:23:49.943Z,62.78
2023-02-14T09:26:22.221Z,63.18
2023-02-14T09:28:51.611Z,63.40
2023-02-14T09:31:23.467Z,63.31
2023-02-14T09:34:11.264Z,64.36
2023-02-14T09:36:39.901Z,64.40
2023-02-14T09:39:11.729Z,63.99
2023-02-14T09:42:15.848Z,63.77
2023-02-14T09:45:00.301Z,63.85
2023-02-14T09:47:42.973Z,63.59
2023-02-14T09:50:32.224Z,63.99
2023-02-14T09:53:14.928Z,64.42
2023-02-14T09:55:58.602Z,63.98
2023-02-14T09:58:32.582Z,63.54
2023-02-14T10:01:08.592Z,63.50
2023-02-14T10:03:59.100Z,63.81
2023-02-14T10:06:51.581Z,64.32
2023-02-14T10:09:35.360Z,64.39
2023-02-14T10:12:06.182Z,63.65
2023-02-14T10:14:41.429Z,63.84
2023-02-14T10:17:40.723Z,65.01
2023-02-14T10:20:25.460Z,65.25
2023-02-14T10:23:05.896Z,64.19
2023-02-14T10:25:47.894Z,64.49
2023-02-14T10:28:31.465Z,64.11
2023-02-14T10:31:08.564Z,64.68
2023-02-14T10:33:40.220Z,64.77
2023-02-14T10:36:46.332Z,64.96
2023-02-14T10:39:30.939Z,65.04
2023-02-14T10:42:02.256Z,64.60
2023-02-14T10:44:48.818Z,64.43
2023-02-14T10:47:23.372Z,65.65
2023-02-14T10:50:10.137Z,65.05
2023-02-14T10:53:05.802Z,64.96
2023-02-14T10:55:40.922Z,64.52
2023-02-14T10:58:16.356Z,65.16
2023-02-14T11:00:57.903Z,64.39
2023-02-14T11:03:28.354Z,64.83
2023-02-14T11:05:57.464Z,65.65
2023-02-14T11:08:46.933Z,65.12
2023-02-14T11:11:31.187Z,64.96
2023-02-14T11:14:33.181Z,64.96
2023-02-14T11:17:27.702Z,64.67
2023-02-14T11:20:10.222Z,64.91
2023-02-14T11:22:39.345Z,65.46
2023-02-14T11:25:23.641Z,65.70
2023-02-14T11:28:02.798Z,65.98
2023-02-14T11:30:41.866Z,65.57
2023-02-14T11:33:35.910Z,65.19
2023-02-14T11:36:06.743Z,65.18
2023-02-14T11:38:39.785Z,65.72
2023-02-14T11:41:12.760Z,65.43
2023-02-14T11:43:44.729Z,65.52
2023-02-14T11:46:27.491Z,66.05
2023-02-14T11:49:05.701Z,65.98
2023-02-14T11:51:42.562Z,65.92
2023-02-14T11:54:35.411Z,66.13
2023-02-14T11:57:06.610Z,65.99
2023-02-14T12:00:12.837Z,66.14
2023-02-14T12:02:47.048Z,66.06
2023-02-14T12:05:29.257Z,65.98
2023-02-14T12:08:01.278Z,66.20
2023-02-14T12:10:32.561Z,66.46
2023-02-14T12:13:09.113Z,65.95
2023-02-14T12:15:45.162Z,66.47
2023-02-14T12:18:22.791Z,66.33
2023-02-14T12:20:57.753Z,66.86
2023-02-14T12:23:33.935Z,66.94
2023-02-14T12:26:07.517Z,66.65
2023-02-14T12:28:45.996Z,66.92
2023-02-14T12:31:15.092Z,67.19
2023-02-14T12:33:46.224Z,66.53
2023-02-14T12:36:37.072Z,67.03
2023-02-14T12:39:33.659Z,67.21
2023-02-14T12:42:18.370Z,67.30
2023-02-14T12:44:58.882Z,66.66
2023-02-14T12:48:02.863Z,66.84
2023-02-14T12:50:40.479Z,67.31
2023-02-14T12:53:24.162Z,67.06
2023-02-14T12:56:11.895Z,66.72
2023-02-14T12:58:57.714Z,66.93
2023-02-14T13:01:40.210Z,67.29
2023-02-14T13:04:37.453Z,66.58
2023-02-14T13:07:09.995Z,67.59
2023-02-14T13:10:20.253Z,66.98
2023-02-14T13:13:04.759Z,67.51
2023-02-14T13:15:59.589Z,66.90
2023-02-14T13:19:05.271Z,67.15
2023-02-14T13:21:38.235Z,67.30
2023-02-14T13:24:25.577Z,67.14
2023-02-14T13:26:59.950Z,66.98
2023-02-14T13:29:34.269Z,67.34
2023-02-14T13:32:04.294Z,67.02
2023-02-14T13:34:32.868Z,66.94
2023-02-14T13:37:05.177Z,67.74
2023-02-14T13:39:44.875Z,67.74
2023-02-14T13:42:14.332Z,67.29
2023-02-14T13:44:48.350Z,67.73
2023-02-14T13:47:37.369Z,68.26
2023-02-14T13:50:06.714Z,67.79
2023-02-14T13:52:47.994Z,67.45
2023-02-14T13:55:26.054Z,68.09
2023-02-14T13:58:18.089Z,67.46
2023-02-14T14:00:52.755Z,67.36
2023-02-14T14:03:30.315Z,68.07
2023-02-14T14:06:11.839Z,67.62
2023-02-14T14:08:49.302Z,67.49
2023-02-14T14:11:23.828Z,67.05
2023-02-14T14:14:03.852Z,67.78
2023-02-14T14:16:35.957Z,67.76
2023-02-14T14:19:24.508Z,67.71
2023-02-14T14:22:05.517Z,67.91
2023-02-14T14:24:36.971Z,67.40
2023-02-14T14:27:18.824Z,66.87
2023-02-14T14:29:54.807Z,66.68
2023-02-14T14:32:30.986Z,66.96
2023-02-14T14:35:03.588Z,66.85
2023-02-14T14:37:35.231Z,66.97
2023-02-14T14:40:10.364Z,67.40
2023-02-14T14:42:41.883Z,67.36
2023-02-14T14:45:21.647Z,67.40
2023-02-14T14:47:54.345Z,66.81
2023-02-14T14:50:30.844Z,66.93
2023-02-14T14:53:03.049Z,67.50
2023-02-14T14:55:46.006Z,67.81
2023-02-14T14:58:37.477Z,67.52
2023-02-14T15:01:11.631Z,67.38
2023-02-14T15:03:41.312Z,67.56
2023-02-14T15:06:21.701Z,67.70
2023-02-14T15:08:52.184Z,67.27
2023-02-14T15:11:48.321Z,67.50
2023-02-14T15:14:23.743Z,67.60
2023-02-14T15:17:01.563Z,68.04
2023-02-14T15:19:39.404Z,67.43
2023-02-14T15:22:19.645Z,67.65
2023-02-14T15:24:50.330Z,67.73
2023-02-14T15:27:28.310Z,67.07
2023-02-14T15:30:04.463Z,67.88
2023-02-14T15:32:36.286Z,67.25
2023-02-14T15:35:07.813Z,67.80
2023-02-14T15:37:37.726Z,67.78
2023-02-14T15:40:09.312Z,67.52
2023-02-14T15:42:44.688Z,67.56
2023-02-14T15:45:31.439Z,67.64
2023-02-14T15:48:25.311Z,67.68
2023-02-14T15:50:59.838Z,67.72
2023-02-14T15:53:43.820Z,68.25
2023-02-14T15:56:31.417Z,67.46
2023-02-14T15:59:08.732Z,67.69
2023-02-14T16:01:38.795Z,68.02
2023-02-14T16:04:09.296Z,67.59
2023-02-14T16:06:45.332Z,67.71
2023-02-14T16:09:29.271Z,68.14
2023-02-14T16:12:00.755Z,67.70
2023-02-14T16:14:37.057Z,68.22
2023-02-14T16:17:14.660Z,67.73
2023-02-14T16:19:47.566Z,67.71
2023-02-14T16:22:32.748Z,67.49
2023-02-14T16:25:04.246Z,67.82
2023-02-14T16:27:32.746Z,68.09
2023-02-14T16:30:01.455Z,67.86
2023-02-14T16:32:31.404Z,67.88
2023-02-14T16:35:01.596Z,68.02
2023-02-14T16:37:34.022Z,67.73
2023-02-14T16:40:03.194Z,67.92
2023-02-14T16:42:34.668Z,67.61
2023-02-14T16:45:03.872Z,67.84
2023-02-14T16:47:32.731Z,68.25
2023-02-14T16:50:01.959Z,68.35
2023-02-14T16:52:31.464Z,68.16
2023-02-14T16:55:00.192Z,67.94
2023-02-14T16:57:33.284Z,67.67
2023-02-14T17:00:02.152Z,68.15
2023-02-14T17:02:30.684Z,67.82
2023-02-14T17:04:59.570Z,67.77
2023-02-14T17:07:32.166Z,67.85
2023-02-14T17:10:07.150Z,68.02
2023-02-14T17:12:42.576Z,67.95
2023-02-14T17:15:17.062Z,68.12
2023-02-14T17:17:48.134Z,68.11
2023-02-14T17:20:17.121Z,67.64
2023-02-14T17:22:45.941Z,67.93
2023-02-14T17:25:15.073Z,67.86
2023-02-14T17:27:45.266Z,68.08
2023-02-14T17:30:15.419Z,68.09
2023-02-14T17:32:44.550Z,68.01
2023-02-14T17:35:15.074Z,68.21
2023-02-14T17:37:43.671Z,68.17
2023-02-14T17:40:15.219Z,68.04
2023-02-14T17:42:43.946Z,68.08
2023-02-14T17:45:13.564Z,67.63
2023-02-14T17:47:47.990Z,67.89
2023-02-14T17:50:20.578Z,67.75
2023-02-14T17:52:50.798Z,67.91
2023-02-14T17:55:19.862Z,67.99
2023-02-14T17:57:53.553Z,68.13
2023-02-14T18:00:22.375Z,67.88
2023-02-14T18:02:51.272Z,68.04
2023-02-14T18:05:19.773Z,67.80
2023-02-14T18:07:48.523Z,67.51
2023-02-14T18:10:17.374Z,67.59
2023-02-14T18:12:46.084Z,68.09
2023-02-14T18:15:15.440Z,67.71
2023-02-14T18:17:44.282Z,68.12
2023-02-14T18:20:13.181Z,67.77
2023-02-14T18:22:41.688Z,67.85
2023-02-14T18:25:11.014Z,68.19
2023-02-14T18:27:40.164Z,67.99
2023-02-14T18:30:09.605Z,68.18
2023-02-14T18:32:38.366Z,68.23
2023-02-14T18:35:07.231Z,68.46
2023-02-14T18:37:35.756Z,68.16
2023-02-14T18:40:04.317Z,68.22
2023-02-14T18:42:33.318Z,68.03
2023-02-14T18:45:02.291Z,68.58
2023-02-14T18:47:30.975Z,68.07
2023-02-14T18:49:59.264Z,68.22
2023-02-14T18:52:27.872Z,68.15
2023-02-14T18:54:59.175Z,68.26
2023-02-14T18:57:27.776Z,68.21
2023-02-14T18:59:59.609Z,67.94
2023-02-14T19:02:28.349Z,68.31
2023-02-14T19:04:59.898Z,67.85
2023-02-14T19:07:28.860Z,68.06
2023-02-14T19:09:57.742Z,68.42
2023-02-14T19:12:26.266Z,68.19
2023-02-14T19:14:55.948Z,67.73
2023-02-14T19:17:25.083Z,67.75
2023-02-14T19:19:54.362Z,68.33
2023-02-14T19:22:23.561Z,68.41
2023-02-14T19:24:54.393Z,68.46
2023-02-14T19:27:24.604Z,68.21
2023-02-14T19:29:53.285Z,68.42
2023-02-14T19:32:22.051Z,68.02
2023-02-14T19:34:51.332Z,68.38
2023-02-14T19:37:19.993Z,68.16
2023-02-14T19:39:48.904Z,68.10
2023-02-14T19:42:17.364Z,68.34
2023-02-14T19:44:47.416Z,68.19
2023-02-14T19:47:29.026Z,68.32
2023-02-14T19:50:02.561Z,68.21
2023-02-14T19:52:31.337Z,68.12
2023-02-14T19:55:03.798Z,68.21
2023-02-14T19:57:32.497Z,68.00
2023-02-14T20:00:01.324Z,67.83
2023-02-14T20:02:46.422Z,67.80
2023-02-14T20:05:20.178Z,67.72
2023-02-14T20:07:49.982Z,67.61
2023-02-14T20:10:18.981Z,67.76
2023-02-14T20:12:47.855Z,67.52
2023-02-14T20:15:16.735Z,67.79
2023-02-14T20:17:45.941Z,67.46
2023-02-14T20:20:16.767Z,68.02
2023-02-14T20:22:45.561Z,67.50
2023-02-14T20:25:14.044Z,67.74
2023-02-14T20:27:42.966Z,67.34
2023-02-14T20:30:12.298Z,67.61
2023-02-14T20:32:41.494Z,67.89
2023-02-14T20:35:10.225Z,67.87
2023-02-14T20:37:39.121Z,68.14
2023-02-14T20:40:10.581Z,67.62
2023-02-14T20:42:41.504Z,67.56
2023-02-14T20:45:10.152Z,67.81
2023-02-14T20:47:38.759Z,67.78
2023-02-14T20:50:08.301Z,67.54
2023-02-14T20:52:37.770Z,68.30
2023-02-14T20:55:07.263Z,67.64
2023-02-14T20:57:35.984Z,67.74
2023-02-14T21:00:05.647Z,67.76
2023-02-14T21:02:34.406Z,68.14
2023-02-14T21:05:03.244Z,67.85
2023-02-14T21:07:31.929Z,68.23
2023-02-14T21:10:03.184Z,67.97
2023-02-14T21:12:31.722Z,68.39
2023-02-14T21:15:02.759Z,67.85
2023-02-14T21:17:31.493Z,67.86
2023-02-14T21:20:00.325Z,67.86
2023-02-14T21:22:28.926Z,67.92
2023-02-14T21:24:57.591Z,68.30
2023-02-14T21:27:26.187Z,68.23
2023-02-14T21:29:55.151Z,68.05
2023-02-14T21:32:29.209Z,68.55
2023-02-14T21:34:57.876Z,68.34
2023-02-14T21:37:26.429Z,68.52
2023-02-14T21:39:55.213Z,68.32
2023-02-14T21:42:23.850Z,68.64
2023-02-14T21:45:11.076Z,68.08
2023-02-14T21:47:40.644Z,68.04
2023-02-14T21:50:29.630Z,68.59
2023-02-14T21:52:58.431Z,68.28
2023-02-14T21:55:27.082Z,68.53
2023-02-14T21:57:55.610Z,68.39
2023-02-14T22:00:24.168Z,68.57
2023-02-14T22:02:53.335Z,68.27
2023-02-14T22:05:22.094Z,68.62
2023-02-14T22:07:53.094Z,68.32
2023-02-14T22:10:21.688Z,68.96
2023-02-14T22:12:50.472Z,68.43
2023-02-14T22:15:19.060Z,68.63
2023-02-14T22:17:47.828Z,68.72
2023-02-14T22:20:17.491Z,68.42
2023-02-14T22:22:49.129Z,68.42
2023-02-14T22:25:20.468Z,68.45
2023-02-14T22:27:49.109Z,68.64
2023-02-14T22:30:18.279Z,68.60
2023-02-14T22:32:47.446Z,67.95
2023-02-14T22:35:16.127Z,68.05
2023-02-14T22:37:44.784Z,68.62
2023-02-14T22:40:16.684Z,68.44
2023-02-14T22:42:45.563Z,68.59
2023-02-14T22:45:14.660Z,68.65
2023-02-14T22:47:43.400Z,67.93
2023-02-14T22:50:12.353Z,68.04
2023-02-14T22:52:41.420Z,68.23
2023-02-14T22:55:10.937Z,68.08
2023-02-14T22:57:40.041Z,67.88
2023-02-14T23:00:12.309Z,67.61
2023-02-14T23:02:40.917Z,68.16
2023-02-14T23:05:09.992Z,68.29
2023-02-14T23:07:38.656Z,68.24
2023-02-14T23:10:08.974Z,67.96
2023-02-14T23:12:56.334Z,68.29
2023-02-14T23:15:43.516Z,68.13
2023-02-14T23:18:32.617Z,67.88
2023-02-14T23:21:19.494Z,68.25
2023-02-14T23:23:48.459Z,68.57
2023-02-14T23:26:21.075Z,68.54
2023-02-14T23:28:50.130Z,69.04
2023-02-14T23:31:19.641Z,68.79
2023-02-14T23:33:52.765Z,68.06
2023-02-14T23:36:24.154Z,68.06
2023-02-14T23:38:52.696Z,68.41
2023-02-14T23:41:40.414Z,68.45
2023-02-14T23:44:09.255Z,68.56
2023-02-14T23:46:38.300Z,68.12
2023-02-14T23:49:07.420Z,68.41
2023-02-14T23:51:37.217Z,68.88
2023-02-14T23:54:06.556Z,68.43
2023-02-14T23:56:35.578Z,68.65
2023-02-14T23:59:05.996Z,68.20
